Airfield :
LOGIN :

Register | Disclaimer

   EN    FR    IT 

 










Legend :    VFR   Marginal VFR   IFR   Intensive IFR   Very Intensive IFR
Visi :
Ceiling :
>= 8 km
>= 3000ft
5 to 8 km
1000 to 3000 ft
1500m to 5 km
500 to 1000 ft
800 to 1500m
200 to 500 ft
< 800m
< 200 ft
Symbols :   Thunderstorms  Fog  Heavy snow  Heavy precipitations  Wind > 20 kt
SIGMETs :     Misc.  Thunderstorms  Icing  Turbulence  Mountain Waves  Volcanic Ashes






- Airport Elevation : 1989 ft
- IATA code : KLV


LKKV - Karlovy Vary

CURRENT METAR :
  • 281500Z 02003KT 340V060 9999 -SHRA BKN036 10/05 Q1028

EXPIRED METARs :
  • 281430Z VRB03KT 9999 -SHRA BKN036 09/04 Q1028
  • 281409Z 02004KT 340V040 9000 -SHRA BKN036 09/05 Q1029 RMK REG QNH 1022
  • 281400Z 36004KT 280V070 9999 BKN036 09/05 Q1028
  • 281344Z 05010KT 340V080 9000 -SHRA FEW020CB BKN036 10/04 Q1028 RMK REG QNH 1022
  • 281330Z 05005KT 320V090 9999 FEW020CB BKN036 12/02 Q1028
  • 281309Z 33010KT 300V010 9999 -SHRA FEW020CB BKN036 12/01 Q1028 RMK REG QNH 1022
  • 281300Z 33011KT 290V030 9999 BKN036 13/02 Q1028
  • 281230Z 33011KT 300V010 9999 SCT036 14/02 Q1028

TAF AMD TAF LKKV
Valid from the 28 at 13:00 until the 29 at 18:00 UTC


281340Z 2813/2918 35007KT 9999 BKN025
TEMPO 2813/2818 35014KT 5000 SHRA SCT012TCU BKN013
PROB30
TEMPO 2813/2815 FEW010CB
BECMG 2820/2822 VRB02KT SCT025
BECMG 2905/2907 02009KT
TEMPO 2908/2916 BKN025



MET'MAP, your aeronautical weather chart ! - Copyright ORBIFLY December 2007 - Disclaimer

ORBIFLY MET'MAP TEAM :

Programming & Development : Alexandra Zaïnal
Concept & original design : Baudouin d'Aumeries
Assistance for programming : Marc-Olivier Méhu
Technical & hardware support : Manuel Goepfert

Contact : metmap@orbifly.com




SOURCES & CREDITS :

   NOAA